Time;durP1;ratioP1;P1;durP2;ratioP2;P2;SDS_P1;SDS_P2;PMS_P1;PMS_P2;Temp;Humidity;BMP_temperature;BMP_pressure;BME280_temperature;BME280_humidity;BME280_pressure;Samples;Min_cycle;Max_cycle;Signal;HPM_P1;HPM_P2
2023/04/27 00:00:47;;;;;;;4.20;1.40;;;;;;;24.78;27.04;101344.91;4130623;28;20050;-68
2023/04/27 00:02:49;;;;;;;2.92;1.08;;;;;;;24.82;26.58;101349.03;4129679;28;20057;-68
2023/04/27 00:04:51;;;;;;;3.17;1.20;;;;;;;24.82;26.73;101349.03;4113598;28;20066;-68
2023/04/27 00:06:54;;;;;;;2.70;1.25;;;;;;;24.84;26.82;101343.53;4114262;28;20051;-68
2023/04/27 00:08:55;;;;;;;3.42;1.23;;;;;;;24.85;26.93;101351.47;4114689;28;20051;-69
2023/04/27 00:10:57;;;;;;;3.42;1.10;;;;;;;24.86;26.94;101349.63;4114959;28;20050;-68
2023/04/27 00:12:59;;;;;;;4.00;1.30;;;;;;;24.86;26.75;101345.13;4114725;28;20496;-69
2023/04/27 00:15:01;;;;;;;3.97;1.25;;;;;;;24.85;26.98;101351.47;4113719;28;20046;-67
2023/04/27 00:17:02;;;;;;;3.00;1.33;;;;;;;24.85;26.60;101346.09;4114475;28;20047;-68
2023/04/27 00:19:04;;;;;;;;;;;;;;;24.81;26.75;101338.41;4115180;28;20489;-68
2023/04/27 00:21:07;;;;;;;4.30;1.33;;;;;;;24.77;27.00;101342.38;4114524;28;20396;-69
2023/04/27 00:23:09;;;;;;;3.50;1.50;;;;;;;24.79;26.80;101337.69;4114257;28;20081;-68
2023/04/27 00:25:11;;;;;;;2.38;1.23;;;;;;;24.79;27.01;101338.56;4116931;28;20411;-68
2023/04/27 00:27:13;;;;;;;4.00;1.45;;;;;;;24.82;26.98;101335.59;4130661;28;20086;-68
2023/04/27 00:29:15;;;;;;;4.53;1.50;;;;;;;24.79;26.93;101327.78;4130606;28;20057;-68
2023/04/27 00:31:16;;;;;;;3.42;1.52;;;;;;;24.80;27.00;101320.56;4130211;28;20042;-68
2023/04/27 00:33:18;;;;;;;;;;;;;;;24.81;26.81;101331.22;4117391;28;20133;-68
2023/04/27 00:35:20;;;;;;;3.47;1.42;;;;;;;24.78;26.87;101327.94;4113627;28;19922;-67
2023/04/27 00:37:21;;;;;;;;;;;;;;;24.79;27.17;101329.63;4114687;28;20046;-68
2023/04/27 00:39:23;;;;;;;4.22;1.80;;;;;;;24.80;27.02;101321.44;4114324;28;19973;-68
2023/04/27 00:41:24;;;;;;;3.40;1.55;;;;;;;24.80;26.82;101324.13;4114543;28;20481;-68
2023/04/27 00:43:26;;;;;;;4.35;1.92;;;;;;;24.80;27.05;101321.44;4114497;28;20057;-68
2023/04/27 00:45:28;;;;;;;4.55;1.95;;;;;;;24.83;27.10;101331.91;4113526;28;20416;-68
2023/04/27 00:47:29;;;;;;;;;;;;;;;24.83;27.10;101323.00;4114708;28;20046;-68
2023/04/27 00:49:32;;;;;;;4.75;1.95;;;;;;;24.81;26.75;101322.28;4114334;28;20020;-68
2023/04/27 00:51:34;;;;;;;4.47;2.22;;;;;;;24.84;26.99;101320.16;4114054;28;20441;-68
2023/04/27 00:53:36;;;;;;;4.80;2.10;;;;;;;24.86;27.12;101317.34;4122041;28;20121;-67
2023/04/27 00:55:38;;;;;;;5.65;2.45;;;;;;;24.87;26.93;101316.34;4129416;28;20133;-68
2023/04/27 00:57:40;;;;;;;3.40;1.70;;;;;;;24.88;26.92;101312.69;4130477;28;20396;-68
2023/04/27 00:59:41;;;;;;;;;;;;;;;24.84;27.03;101320.16;4130786;28;20051;-68
2023/04/27 01:01:43;;;;;;;3.63;2.10;;;;;;;24.83;27.42;101313.09;4130547;28;20017;-68
2023/04/27 01:03:46;;;;;;;4.47;2.33;;;;;;;24.85;27.04;101315.66;4106790;28;20055;-68
2023/04/27 01:05:48;;;;;;;4.90;2.03;;;;;;;24.83;26.97;101306.84;4116182;28;20473;-67
2023/04/27 01:07:50;;;;;;;3.85;1.92;;;;;;;24.84;27.29;101313.94;4117613;28;20051;-68
2023/04/27 01:09:51;;;;;;;;;;;;;;;24.85;27.08;101312.97;4117622;28;20049;-68
2023/04/27 01:11:53;;;;;;;4.15;2.10;;;;;;;24.80;27.21;101316.06;4117571;28;19926;-68
2023/04/27 01:13:55;;;;;;;;;;;;;;;24.82;27.16;101315.91;4100599;28;20126;-67
2023/04/27 01:15:57;;;;;;;4.53;2.20;;;;;;;24.81;27.04;101308.81;4099052;28;19979;-68
2023/04/27 01:18:00;;;;;;;4.63;2.10;;;;;;;24.82;27.11;101308.69;4117216;28;20050;-68
2023/04/27 01:20:05;;;;;;;4.68;2.03;;;;;;;24.90;26.99;101315.22;4117130;28;20062;-67
2023/04/27 01:22:07;;;;;;;4.68;2.10;;;;;;;24.85;27.15;101316.50;4117032;28;20054;-67
2023/04/27 01:24:09;;;;;;;3.88;1.98;;;;;;;24.87;26.84;101321.75;4117056;28;20081;-67
2023/04/27 01:26:12;;;;;;;;;;;;;;;24.85;27.04;101318.34;4127989;28;20116;-67
2023/04/27 01:28:14;;;;;;;4.53;2.17;;;;;;;24.82;27.54;101314.06;4133195;28;19930;-67
2023/04/27 01:30:15;;;;;;;;;;;;;;;24.88;27.26;101324.28;4133377;28;20046;-67
2023/04/27 01:32:17;;;;;;;5.95;2.05;;;;;;;24.87;26.91;101319.91;4127699;28;19945;-67
2023/04/27 01:34:19;;;;;;;4.15;1.90;;;;;;;24.90;27.05;101326.88;4116669;28;20500;-68
2023/04/27 01:36:20;;;;;;;4.10;1.90;;;;;;;24.91;27.34;101325.88;4115910;28;20471;-67
2023/04/27 01:38:25;;;;;;;3.95;2.00;;;;;;;24.92;27.22;101326.72;4117188;28;20535;-69
2023/04/27 01:40:26;;;;;;;4.30;1.92;;;;;;;24.92;27.36;101321.34;4117073;28;20058;-69
2023/04/27 01:42:28;;;;;;;5.40;2.10;;;;;;;24.92;26.96;101319.50;4116889;28;20428;-68
2023/04/27 01:44:30;;;;;;;5.55;1.80;;;;;;;24.90;27.37;101313.41;4116750;28;20047;-69
2023/04/27 01:46:31;;;;;;;6.38;1.90;;;;;;;24.88;27.05;101312.69;4115871;28;20050;-69
2023/04/27 01:48:33;;;;;;;;;;;;;;;24.88;27.11;101310.84;4117093;28;20461;-66
2023/04/27 01:50:35;;;;;;;5.22;2.00;;;;;;;24.86;26.94;101307.44;4116679;28;20352;-68
2023/04/27 01:52:36;;;;;;;4.53;2.08;;;;;;;24.89;27.03;101309.00;4117811;28;20059;-69
2023/04/27 01:54:38;;;;;;;4.82;2.15;;;;;;;24.88;27.10;101299.22;4131416;28;20134;-68
2023/04/27 01:56:40;;;;;;;3.92;1.80;;;;;;;24.90;26.92;101302.66;4131950;28;20057;-69
2023/04/27 01:58:42;;;;;;;3.72;1.70;;;;;;;24.86;26.98;101291.31;4132812;28;20060;-69
2023/04/27 02:00:44;;;;;;;4.10;1.85;;;;;;;24.84;27.09;101295.97;4132666;28;20435;-69
2023/04/27 02:02:45;;;;;;;;;;;;;;;24.86;27.28;101296.69;4132122;28;20518;-65
2023/04/27 02:04:47;;;;;;;4.53;1.50;;;;;;;24.84;27.32;101297.81;4115924;28;20257;-69
2023/04/27 02:06:49;;;;;;;;;;;;;;;24.86;26.96;101301.19;4116103;28;20081;-66
2023/04/27 02:08:50;;;;;;;3.97;1.80;;;;;;;24.85;27.06;101291.44;4116575;28;19922;-68
2023/04/27 02:10:52;;;;;;;4.25;1.90;;;;;;;24.79;27.18;101284.75;4116602;28;20046;-69
2023/04/27 02:12:54;;;;;;;4.45;2.00;;;;;;;24.93;26.77;101298.84;4116448;28;20051;-69
2023/04/27 02:14:56;;;;;;;;;;;;;;;24.88;26.81;101296.53;4115865;28;20051;-67
2023/04/27 02:16:57;;;;;;;3.10;1.60;;;;;;;24.86;27.16;101298.50;4116191;28;19922;-69
2023/04/27 02:18:59;;;;;;;3.42;1.80;;;;;;;24.90;26.84;101296.41;4116193;28;20050;-69
2023/04/27 02:21:00;;;;;;;4.15;1.70;;;;;;;24.91;27.14;101290.91;4116010;28;20043;-68
2023/04/27 02:23:02;;;;;;;4.53;1.80;;;;;;;24.91;27.20;101293.59;4116242;28;20509;-69
2023/04/27 02:25:04;;;;;;;;;;;;;;;24.91;27.28;101292.72;4117989;28;20050;-66
2023/04/27 02:27:05;;;;;;;4.38;1.90;;;;;;;24.89;26.92;101298.25;4132181;28;19928;-69
2023/04/27 02:29:07;;;;;;;4.00;1.77;;;;;;;24.92;26.49;101295.28;4132300;28;20057;-69
2023/04/27 02:31:10;;;;;;;3.67;1.88;;;;;;;24.94;27.00;101300.53;4114683;28;20043;-69
2023/04/27 02:33:12;;;;;;;4.97;2.03;;;;;;;24.96;27.07;101299.41;4119119;28;20050;-68
2023/04/27 02:35:13;;;;;;;4.60;2.10;;;;;;;24.95;26.94;101305.78;4115191;28;20154;-68
2023/04/27 02:37:15;;;;;;;3.97;2.08;;;;;;;24.80;26.82;101285.59;4116014;28;20054;-68
2023/04/27 02:39:16;;;;;;;4.88;2.55;;;;;;;24.92;27.14;101305.19;4116120;28;20130;-68
2023/04/27 02:41:18;;;;;;;4.40;2.10;;;;;;;24.88;26.93;101305.44;4116095;28;20057;-68
2023/04/27 02:43:20;;;;;;;4.85;2.30;;;;;;;24.93;26.85;101309.59;4115888;28;20043;-69
2023/04/27 02:45:22;;;;;;;6.80;2.10;;;;;;;24.93;27.02;101305.06;4114930;28;20038;-68
2023/04/27 02:47:23;;;;;;;4.85;2.50;;;;;;;24.94;26.90;101306.75;4115602;28;20050;-69
2023/04/27 02:49:25;;;;;;;4.80;2.80;;;;;;;24.94;27.20;101312.16;4115815;28;20174;-67
2023/04/27 02:51:27;;;;;;;6.25;2.55;;;;;;;24.94;26.85;101312.16;4115852;28;20053;-68
2023/04/27 02:53:28;;;;;;;5.72;2.88;;;;;;;24.95;26.93;101310.31;4123996;28;20038;-69
2023/04/27 02:55:30;;;;;;;4.72;2.97;;;;;;;24.93;26.91;101315.81;4130889;28;20046;-68
2023/04/27 02:57:32;;;;;;;5.90;3.00;;;;;;;24.95;27.03;101313.00;4131785;28;20471;-69
2023/04/27 02:59:33;;;;;;;7.25;3.28;;;;;;;24.93;26.72;101309.59;4130595;28;20047;-68
2023/04/27 03:01:35;;;;;;;;;;;;;;;24.91;26.97;101315.13;4131792;28;20128;-68
2023/04/27 03:03:37;;;;;;;6.13;3.58;;;;;;;24.90;26.95;101312.53;4124119;28;19929;-68
2023/04/27 03:05:39;;;;;;;;;;;;;;;24.92;26.82;101313.28;4114981;28;20146;-67
2023/04/27 03:07:40;;;;;;;6.68;3.72;;;;;;;24.92;27.01;101310.59;4115617;28;19943;-67
2023/04/27 03:09:42;;;;;;;6.10;3.58;;;;;;;24.90;27.03;101308.03;4115614;28;20047;-68
2023/04/27 03:11:44;;;;;;;7.03;3.75;;;;;;;24.94;27.17;101314.84;4115376;28;20146;-68
2023/04/27 03:13:45;;;;;;;;;;;;;;;24.92;26.92;101306.03;4115851;28;20093;-68
2023/04/27 03:15:47;;;;;;;6.30;3.45;;;;;;;24.86;27.24;101306.56;4114046;28;19922;-68
2023/04/27 03:17:49;;;;;;;6.85;4.07;;;;;;;24.91;26.89;101306.19;4115418;28;20512;-68
2023/04/27 03:19:51;;;;;;;6.35;3.95;;;;;;;24.92;27.06;101306.03;4115280;28;20057;-67
2023/04/27 03:21:52;;;;;;;7.13;3.63;;;;;;;24.95;27.49;101316.53;4115368;28;20055;-68
2023/04/27 03:23:54;;;;;;;6.38;3.60;;;;;;;24.96;27.13;101312.88;4115551;28;20074;-68
2023/04/27 03:25:56;;;;;;;5.90;3.50;;;;;;;24.96;26.96;101306.63;4122676;28;20057;-68
2023/04/27 03:27:57;;;;;;;;;;;;;;;24.95;26.88;101318.41;4131367;28;20096;-67
2023/04/27 03:29:59;;;;;;;6.15;3.60;;;;;;;24.92;26.95;101316.81;4131101;28;19926;-68
2023/04/27 03:32:02;;;;;;;8.15;3.78;;;;;;;24.95;27.32;101311.16;4128149;28;20046;-67
2023/04/27 03:34:04;;;;;;;7.53;4.30;;;;;;;24.95;26.95;101315.72;4115043;28;20054;-68
2023/04/27 03:36:07;;;;;;;;;;;;;;;24.91;27.02;101315.13;4114237;28;20053;-68
2023/04/27 03:38:08;;;;;;;6.40;3.40;;;;;;;24.85;27.40;101312.97;4115177;28;19922;-68
2023/04/27 03:40:11;;;;;;;6.63;4.13;;;;;;;24.88;27.11;101310.00;4115211;28;20065;-68
2023/04/27 03:42:12;;;;;;;6.22;3.63;;;;;;;24.92;27.06;101313.28;4115113;28;20051;-67
2023/04/27 03:44:14;;;;;;;7.60;3.67;;;;;;;24.94;26.84;101311.31;4115101;28;20560;-68
2023/04/27 03:46:16;;;;;;;;;;;;;;;24.92;26.96;101314.09;4114007;28;20046;-68
2023/04/27 03:48:18;;;;;;;7.05;3.97;;;;;;;24.93;27.02;101309.59;4115105;28;20017;-67
2023/04/27 03:50:20;;;;;;;6.47;3.58;;;;;;;24.94;26.96;101317.53;4097933;28;20608;-67
2023/04/27 03:52:21;;;;;;;6.55;3.58;;;;;;;24.96;27.27;101310.19;4114942;28;20054;-67
2023/04/27 03:54:23;;;;;;;6.43;3.67;;;;;;;24.93;26.96;101307.75;4129246;28;20056;-68
2023/04/27 03:56:25;;;;;;;6.07;3.45;;;;;;;24.92;27.07;101310.59;4129960;28;20054;-68
2023/04/27 03:58:26;;;;;;;5.70;3.33;;;;;;;24.95;26.91;101313.00;4130878;28;20047;-68
2023/04/27 04:00:28;;;;;;;7.15;3.22;;;;;;;24.96;27.19;101312.88;4130635;28;20047;-68
2023/04/27 04:02:29;;;;;;;6.72;3.50;;;;;;;24.95;26.94;101308.47;4130936;28;20046;-68
2023/04/27 04:04:31;;;;;;;6.00;3.13;;;;;;;24.98;26.89;101305.53;4115856;28;20043;-67
2023/04/27 04:06:33;;;;;;;5.38;2.97;;;;;;;24.96;27.20;101299.41;4113576;28;20046;-68
2023/04/27 04:08:35;;;;;;;;;;;;;;;24.96;27.03;101307.50;4115189;28;20117;-67
2023/04/27 04:10:37;;;;;;;6.85;3.28;;;;;;;24.97;27.23;101314.59;4114495;28;19922;-68
2023/04/27 04:12:39;;;;;;;5.85;3.17;;;;;;;24.98;26.90;101310.03;4114852;28;20468;-68
2023/04/27 04:14:41;;;;;;;5.38;2.72;;;;;;;24.94;27.00;101314.00;4113250;28;20448;-68
2023/04/27 04:16:43;;;;;;;5.70;3.05;;;;;;;24.93;26.83;101314.97;4096248;29;20102;-68
2023/04/27 04:18:46;;;;;;;6.63;3.20;;;;;;;24.93;27.26;101307.75;4114524;28;20523;-68
2023/04/27 04:20:47;;;;;;;6.60;3.00;;;;;;;24.97;27.14;101303.81;4114605;28;20051;-68
2023/04/27 04:22:49;;;;;;;5.93;3.10;;;;;;;25.00;27.08;101310.75;4114644;28;20541;-69
2023/04/27 04:24:51;;;;;;;6.28;2.63;;;;;;;25.00;26.72;101308.91;4115040;28;20412;-68
2023/04/27 04:26:52;;;;;;;5.68;2.95;;;;;;;25.03;26.98;101310.47;4112266;28;20122;-68
2023/04/27 04:28:55;;;;;;;5.82;2.83;;;;;;;25.02;26.91;101308.81;4129632;28;20470;-68
2023/04/27 04:30:59;;;;;;;4.30;2.20;;;;;;;24.99;27.32;101311.75;4130545;28;20046;-68
2023/04/27 04:33:01;;;;;;;5.82;2.90;;;;;;;25.01;26.99;101315.16;4119517;28;20153;-68
2023/04/27 04:35:04;;;;;;;;;;;;;;;24.95;27.08;101318.41;4114753;28;20054;-67
2023/04/27 04:37:05;;;;;;;5.70;2.75;;;;;;;24.90;27.10;101316.09;4113360;28;19926;-70
2023/04/27 04:39:07;;;;;;;;;;;;;;;24.95;27.18;101318.41;4114767;28;20050;-67
2023/04/27 04:41:09;;;;;;;6.25;3.25;;;;;;;24.90;27.23;101312.53;4114425;28;19961;-69
2023/04/27 04:43:12;;;;;;;6.75;2.78;;;;;;;24.95;27.13;101313.84;4114236;28;20051;-69
2023/04/27 04:45:14;;;;;;;6.28;2.88;;;;;;;25.01;26.84;101310.63;4114384;28;20054;-69
2023/04/27 04:47:16;;;;;;;;;;;;;;;25.01;27.10;101307.09;4113642;28;20206;-66
2023/04/27 04:49:18;;;;;;;6.05;2.80;;;;;;;24.98;26.98;101297.47;4114398;28;19922;-69
2023/04/27 04:51:19;;;;;;;5.43;3.13;;;;;;;25.00;26.98;101294.63;4114223;28;20050;-69
2023/04/27 04:53:21;;;;;;;5.25;2.97;;;;;;;25.03;26.83;101294.34;4121350;28;20054;-69
2023/04/27 04:55:25;;;;;;;6.13;3.40;;;;;;;25.04;27.26;101296.03;4130013;28;20544;-69
2023/04/27 04:57:26;;;;;;;5.97;3.50;;;;;;;25.00;26.95;101303.53;4129191;28;20137;-68
2023/04/27 04:59:32;;;;;;;5.07;3.10;;;;;;;24.98;27.14;101302.84;4130447;28;20133;-68
2023/04/27 05:01:35;;;;;;;6.53;3.40;;;;;;;25.01;27.31;101304.41;4130155;28;20047;-68
2023/04/27 05:03:37;;;;;;;6.55;3.30;;;;;;;25.02;27.23;101300.72;4122772;28;20051;-68
2023/04/27 05:05:39;;;;;;;6.25;3.03;;;;;;;25.03;26.82;101307.78;4096219;28;20433;-68
2023/04/27 05:07:40;;;;;;;5.25;2.90;;;;;;;25.02;26.98;101306.94;4114311;28;20047;-69
2023/04/27 05:09:42;;;;;;;;;;;;;;;24.99;27.04;101304.50;4114563;28;20043;-68
2023/04/27 05:11:43;;;;;;;5.68;2.88;;;;;;;24.98;27.18;101307.34;4113862;28;20017;-68
2023/04/27 05:13:45;;;;;;;5.97;3.08;;;;;;;25.02;27.15;101304.25;4114414;28;20050;-67
2023/04/27 05:15:47;;;;;;;;;;;;;;;24.98;27.13;101310.91;4112230;28;20047;-65
2023/04/27 05:17:48;;;;;;;7.13;2.75;;;;;;;24.97;27.04;101313.72;4114119;28;19926;-67
2023/04/27 05:19:50;;;;;;;5.93;3.00;;;;;;;24.95;27.33;101300.41;4113928;28;20047;-67
2023/04/27 05:21:52;;;;;;;6.57;2.90;;;;;;;25.04;27.06;101310.38;4113899;28;20055;-68
2023/04/27 05:23:53;;;;;;;6.28;3.20;;;;;;;25.06;27.20;101314.78;4096941;29;20054;-68
2023/04/27 05:25:55;;;;;;;;;;;;;;;25.03;27.23;101313.16;4105180;28;20646;-69
2023/04/27 05:27:57;;;;;;;6.40;2.80;;;;;;;25.02;27.24;101316.88;4130186;28;20004;-68
2023/04/27 05:30:02;;;;;;;5.35;2.60;;;;;;;25.05;27.04;101313.91;4129667;28;20440;-68
2023/04/27 05:32:05;;;;;;;5.40;2.65;;;;;;;25.03;27.27;101314.03;4126441;28;20109;-68
2023/04/27 05:34:08;;;;;;;6.75;2.58;;;;;;;25.01;27.35;101309.78;4114018;28;20106;-68
2023/04/27 05:36:10;;;;;;;6.05;2.72;;;;;;;25.00;27.19;101313.47;4113005;28;20055;-68
2023/04/27 05:38:16;;;;;;;5.05;2.60;;;;;;;24.98;27.08;101304.66;4113958;28;20063;-68
2023/04/27 05:40:17;;;;;;;6.15;2.50;;;;;;;25.01;27.05;101301.72;4114048;28;20491;-67
2023/04/27 05:42:19;;;;;;;5.45;2.40;;;;;;;25.06;27.08;101304.84;4113756;28;20125;-69
2023/04/27 05:44:21;;;;;;;5.20;2.17;;;;;;;25.06;27.34;101295.94;4114121;28;20058;-67
2023/04/27 05:46:23;;;;;;;5.65;2.92;;;;;;;25.08;26.80;101302.88;4112674;28;20086;-68
2023/04/27 05:48:24;;;;;;;6.10;2.60;;;;;;;25.09;26.78;101301.88;4113887;28;20445;-68
2023/04/27 05:50:26;;;;;;;;;;;;;;;25.07;27.00;101289.53;4116062;28;20097;-67
2023/04/27 05:52:29;;;;;;;5.72;2.40;;;;;;;24.99;26.83;101295.59;4116902;28;19928;-68
2023/04/27 05:54:31;;;;;;;4.80;2.28;;;;;;;24.88;27.11;101275.84;4132733;28;20057;-67
2023/04/27 05:56:33;;;;;;;4.90;2.42;;;;;;;25.03;27.26;101303.28;4131297;28;20423;-67
2023/04/27 05:58:34;;;;;;;4.35;2.38;;;;;;;25.07;26.96;101292.22;4132966;28;20050;-67
2023/04/27 06:00:37;;;;;;;;;;;;;;;25.06;27.17;101295.94;4133047;28;20050;-67
2023/04/27 06:02:38;;;;;;;;;;;;;;;25.01;27.28;101293.63;4133148;28;19932;-67
2023/04/27 06:04:40;;;;;;;7.20;2.85;;;;;;;24.98;27.47;101301.97;4116488;28;19922;-67
2023/04/27 06:06:43;;;;;;;;;;;;;;;25.04;27.15;101304.97;4115823;28;20051;-68
2023/04/27 06:08:45;;;;;;;4.45;2.00;;;;;;;25.04;27.00;101306.81;4116689;28;19922;-68
2023/04/27 06:10:46;;;;;;;5.72;2.13;;;;;;;25.02;27.06;101304.25;4116168;28;20058;-68
2023/04/27 06:12:48;;;;;;;;;;;;;;;25.00;27.22;101311.59;4116984;28;20047;-66
2023/04/27 06:14:50;;;;;;;5.40;2.20;;;;;;;25.01;27.13;101313.31;4116690;28;19928;-68
2023/04/27 06:16:51;;;;;;;5.15;2.40;;;;;;;25.05;27.28;101313.91;4114982;28;20050;-68
2023/04/27 06:18:54;;;;;;;5.05;2.10;;;;;;;25.08;27.27;101304.69;4099357;28;20573;-68
2023/04/27 06:21:01;;;;;;;;;;;;;;;25.08;27.10;101305.56;4116513;28;20106;-66
2023/04/27 06:23:03;;;;;;;5.25;2.03;;;;;;;25.07;27.22;101300.28;4116177;28;19921;-67
2023/04/27 06:25:06;;;;;;;4.60;2.08;;;;;;;25.14;27.07;101305.03;4118214;28;20043;-67
2023/04/27 06:27:08;;;;;;;5.15;2.20;;;;;;;25.15;26.88;101311.25;4131266;28;20046;-68
2023/04/27 06:29:10;;;;;;;4.95;2.10;;;;;;;25.14;27.09;101302.34;4132228;28;20474;-68
2023/04/27 06:31:12;;;;;;;3.40;1.67;;;;;;;25.08;27.16;101296.63;4115042;28;20494;-67
2023/04/27 06:33:13;;;;;;;4.53;2.00;;;;;;;25.16;27.06;101304.88;4119390;28;20138;-67
2023/04/27 06:35:18;;;;;;;5.72;1.85;;;;;;;25.17;27.14;101302.03;4116128;28;20397;-68
2023/04/27 06:37:19;;;;;;;4.25;1.88;;;;;;;25.19;26.72;101302.78;4114924;28;20062;-67
2023/04/27 06:39:21;;;;;;;;;;;;;;;25.16;27.13;101307.56;4116280;28;20602;-67
2023/04/27 06:41:25;;;;;;;4.15;1.90;;;;;;;25.14;27.08;101306.84;4116107;28;20018;-66
2023/04/27 06:43:26;;;;;;;5.82;1.80;;;;;;;25.19;27.02;101310.84;4115907;28;20134;-67
2023/04/27 06:45:28;;;;;;;5.28;1.95;;;;;;;25.19;27.06;101313.53;4116080;28;20062;-67
2023/04/27 06:47:30;;;;;;;5.88;2.03;;;;;;;25.20;27.02;101315.25;4115036;28;20130;-68
2023/04/27 06:49:32;;;;;;;4.97;2.10;;;;;;;25.22;26.73;101320.47;4115991;28;20050;-67
2023/04/27 06:51:33;;;;;;;5.20;2.10;;;;;;;25.20;26.93;101327.84;4115829;28;20062;-67
2023/04/27 06:53:35;;;;;;;;;;;;;;;25.17;27.08;101326.28;4125063;28;20056;-66
2023/04/27 06:55:40;;;;;;;4.30;2.00;;;;;;;25.16;27.02;101329.94;4131841;28;19934;-68
2023/04/27 06:57:46;;;;;;;3.83;1.75;;;;;;;25.19;26.76;101329.69;4130860;28;20137;-67
2023/04/27 06:59:48;;;;;;;;;;;;;;;25.20;27.00;101328.69;4132336;28;20397;-66
2023/04/27 07:01:50;;;;;;;5.20;1.92;;;;;;;25.18;27.23;101319.06;4131603;28;19972;-66
2023/04/27 07:03:52;;;;;;;4.38;1.98;;;;;;;25.23;27.00;101319.50;4105031;28;20079;-68
2023/04/27 07:05:56;;;;;;;4.55;1.80;;;;;;;25.29;26.60;101323.50;4115526;28;20105;-69
2023/04/27 07:07:57;;;;;;;4.88;1.80;;;;;;;25.25;26.81;101320.22;4114901;28;20047;-68
2023/04/27 07:10:02;;;;;;;5.80;1.90;;;;;;;25.26;26.78;101313.81;4115602;28;20054;-68
2023/04/27 07:12:06;;;;;;;4.57;1.83;;;;;;;25.26;26.94;101315.69;4115554;28;20450;-67
2023/04/27 07:14:08;;;;;;;;;;;;;;;25.25;27.02;101316.66;4115880;28;20054;-68
2023/04/27 07:16:10;;;;;;;4.35;1.80;;;;;;;25.25;27.04;101322.03;4114674;28;19944;-68
2023/04/27 07:18:11;;;;;;;5.22;1.90;;;;;;;25.27;26.92;101307.47;4115172;28;20139;-68
2023/04/27 07:20:13;;;;;;;2.95;1.60;;;;;;;25.27;26.79;101302.06;4114350;28;20056;-67
2023/04/27 07:22:15;;;;;;;;;;;;;;;25.27;26.66;101302.06;4098040;28;20059;-67
2023/04/27 07:24:16;;;;;;;9.90;2.65;;;;;;;25.25;26.66;101306.75;4115190;28;19922;-66
2023/04/27 07:26:18;;;;;;;8.40;2.28;;;;;;;25.26;26.81;101305.75;4126548;28;20050;-67
2023/04/27 07:28:20;;;;;;;;;;;;;;;25.24;26.96;101296.97;4131811;28;20503;-66
2023/04/27 07:30:22;;;;;;;12.35;2.08;;;;;;;25.21;26.96;101297.25;4131338;28;19925;-66
2023/04/27 07:32:24;;;;;;;22.10;4.07;;;;;;;25.25;27.00;101295.13;4107753;28;20039;-66
2023/04/27 07:34:30;;;;;;;18.80;3.10;;;;;;;25.28;26.98;101295.72;4115121;28;20554;-65
2023/04/27 07:36:52;;;;;;;12.65;2.20;;;;;;;25.29;26.72;101296.56;4113897;28;20146;-67
2023/04/27 07:38:56;;;;;;;19.02;3.50;;;;;;;25.38;27.23;101305.69;4115324;28;20492;-66
2023/04/27 07:41:00;;;;;;;24.35;4.38;;;;;;;25.38;26.78;101309.22;4115266;28;20059;-66
2023/04/27 07:43:02;;;;;;;33.60;5.00;;;;;;;25.41;26.74;101305.41;4115253;28;20621;-67
2023/04/27 07:45:05;;;;;;;24.30;4.05;;;;;;;25.40;26.98;101301.03;4115118;28;20125;-67
2023/04/27 07:47:06;;;;;;;28.65;4.60;;;;;;;25.41;26.69;101303.59;4113946;28;20043;-65
2023/04/27 07:49:08;;;;;;;32.92;4.65;;;;;;;25.48;26.56;101304.75;4114888;28;20562;-67
2023/04/27 07:51:10;;;;;;;44.53;6.47;;;;;;;25.48;26.83;101311.94;4114696;28;20053;-66
2023/04/27 07:53:11;;;;;;;46.17;6.97;;;;;;;25.50;26.78;101308.13;4120860;28;20105;-66
2023/04/27 07:55:13;;;;;;;53.60;8.25;;;;;;;25.51;26.73;101307.13;4130818;28;20046;-66
2023/04/27 07:57:15;;;;;;;;;;;;;;;25.54;26.59;101308.69;4112766;28;20050;-66
2023/04/27 07:59:16;;;;;;;50.00;7.68;;;;;;;25.51;26.45;101304.44;4130955;28;20016;-66
2023/04/27 08:01:20;;;;;;;63.00;9.07;;;;;;;25.55;26.85;101305.03;4130926;28;20389;-66
2023/04/27 08:03:22;;;;;;;52.67;8.60;;;;;;;25.58;26.64;101302.06;4125140;28;20043;-66
2023/04/27 08:05:24;;;;;;;54.95;7.97;;;;;;;25.62;26.50;101308.03;4114492;28;20062;-65
2023/04/27 08:07:27;;;;;;;52.17;8.48;;;;;;;25.58;26.48;101299.38;4113345;28;20043;-65
2023/04/27 08:09:30;;;;;;;41.80;8.13;;;;;;;25.61;26.68;101309.00;4114532;28;20046;-66
2023/04/27 08:11:31;;;;;;;46.50;7.60;;;;;;;25.63;26.47;101310.56;4114509;28;20429;-67
2023/04/27 08:13:34;;;;;;;30.77;6.80;;;;;;;25.62;26.60;101314.25;4114219;28;20071;-66
2023/04/27 08:15:36;;;;;;;29.98;5.38;;;;;;;25.65;26.39;101300.50;4114792;28;20046;-66
2023/04/27 08:17:40;;;;;;;32.83;5.75;;;;;;;25.67;26.23;101309.28;4113690;28;20046;-67
2023/04/27 08:19:42;;;;;;;33.70;5.50;;;;;;;25.58;26.48;101293.97;4114724;28;20118;-66
2023/04/27 08:21:44;;;;;;;29.40;5.30;;;;;;;25.64;26.46;101301.50;4113874;28;20161;-67
2023/04/27 08:23:46;;;;;;;32.13;6.20;;;;;;;25.70;26.54;101304.63;4113430;28;20078;-66
2023/04/27 08:25:47;;;;;;;39.38;5.82;;;;;;;25.68;26.46;101299.38;4120098;28;20559;-67
2023/04/27 08:27:49;;;;;;;64.57;48.13;;;;;;;25.70;26.69;101300.09;4113548;28;20171;-66
2023/04/27 08:29:51;;;;;;;;;;;;;;;25.65;26.44;101291.56;4114932;28;20137;-66
2023/04/27 08:32:00;;;;;;;119.97;105.20;;;;;;;25.68;26.64;101285.91;4122140;28;19926;-66
2023/04/27 08:34:01;;;;;;;130.27;115.63;;;;;;;25.71;26.39;101282.09;4114713;28;20073;-66
2023/04/27 08:36:03;;;;;;;125.63;111.60;;;;;;;25.74;26.24;101281.81;4113559;28;20110;-66
2023/04/27 08:38:05;;;;;;;150.98;129.95;;;;;;;25.74;26.32;101284.50;4113232;28;20142;-67
2023/04/27 08:40:08;;;;;;;144.43;127.78;;;;;;;25.76;26.35;101275.28;4114637;28;20069;-65
2023/04/27 08:42:11;;;;;;;152.57;134.13;;;;;;;25.78;26.12;101272.44;4114511;28;20455;-66
2023/04/27 08:44:13;;;;;;;155.25;134.55;;;;;;;25.76;26.24;101274.41;4114511;28;20082;-66
2023/04/27 08:46:27;;;;;;;181.80;154.98;;;;;;;25.80;26.23;101274.00;4113962;28;20058;-67
2023/04/27 08:48:29;;;;;;;159.48;138.73;;;;;;;25.78;26.26;101275.16;4114014;28;20126;-66
2023/04/27 08:50:31;;;;;;;154.57;138.02;;;;;;;25.76;26.34;101280.69;4113948;28;20053;-65
2023/04/27 08:52:33;;;;;;;156.93;129.88;;;;;;;25.79;26.29;101283.06;4114740;28;20057;-67
2023/04/27 08:54:34;;;;;;;;;;;;;;;25.74;26.53;101276.44;4131173;28;20082;-66
2023/04/27 08:56:36;;;;;;;145.80;113.70;;;;;;;25.73;26.67;101275.56;4129474;28;19932;-65
2023/04/27 08:58:38;;;;;;;126.13;102.43;;;;;;;25.84;26.38;101277.28;4129292;28;20058;-65
2023/04/27 09:00:41;;;;;;;106.65;95.30;;;;;;;25.84;26.76;101275.41;4130468;28;20125;-67
2023/04/27 09:02:45;;;;;;;99.00;88.63;;;;;;;25.87;26.27;101274.31;4129943;28;20057;-66
2023/04/27 09:04:47;;;;;;;96.20;82.90;;;;;;;25.89;26.49;101276.84;4106791;28;20082;-65
2023/04/27 09:06:49;;;;;;;92.20;75.88;;;;;;;25.90;26.44;101265.94;4113267;28;20055;-66
2023/04/27 09:08:51;;;;;;;81.75;71.10;;;;;;;25.89;26.56;101269.59;4114282;28;20125;-65
2023/04/27 09:10:55;;;;;;;69.80;62.25;;;;;;;25.83;26.18;101265.66;4114187;28;20396;-66
2023/04/27 09:12:59;;;;;;;63.35;56.50;;;;;;;25.83;25.96;101268.34;4114414;28;20388;-66
2023/04/27 09:15:04;;;;;;;56.70;50.75;;;;;;;25.78;26.22;101261.66;4114014;28;20058;-66
2023/04/27 09:17:08;;;;;;;54.22;47.92;;;;;;;25.73;26.12;101256.69;4112835;28;20054;-66
2023/04/27 09:19:10;;;;;;;50.28;44.97;;;;;;;25.74;26.38;101260.25;4113703;28;20047;-64
2023/04/27 09:21:22;;;;;;;44.30;39.78;;;;;;;25.81;25.85;101267.63;4114031;28;20050;-66
2023/04/27 09:23:30;;;;;;;39.03;35.00;;;;;;;25.82;26.32;101266.66;4121742;28;20050;-67
2023/04/27 09:25:32;;;;;;;36.75;32.90;;;;;;;25.78;26.00;101261.66;4124372;28;20088;-67
2023/04/27 09:27:36;;;;;;;34.80;31.00;;;;;;;25.79;26.27;101268.75;4120860;28;20365;-66
2023/04/27 09:29:38;;;;;;;33.47;28.42;;;;;;;25.80;26.00;101262.41;4113886;28;20051;-65
2023/04/27 09:31:40;;;;;;;28.08;24.13;;;;;;;25.79;26.13;101268.75;4124523;28;20097;-66
2023/04/27 09:33:43;;;;;;;27.73;22.65;;;;;;;25.79;25.64;101258.81;4116131;28;20078;-64